createdAt,value
2023-05-17T00:00:53.177Z,23.03
2023-05-17T00:03:25.909Z,23.03
2023-05-17T00:05:59.330Z,23.02
2023-05-17T00:08:33.411Z,23.01
2023-05-17T00:11:06.774Z,23.00
2023-05-17T00:13:40.030Z,22.99
2023-05-17T00:16:13.568Z,22.98
2023-05-17T00:18:47.392Z,22.98
2023-05-17T00:21:21.169Z,22.96
2023-05-17T00:23:53.996Z,22.96
2023-05-17T00:26:30.802Z,22.95
2023-05-17T00:29:04.073Z,22.94
2023-05-17T00:31:37.388Z,22.94
2023-05-17T00:34:11.091Z,22.93
2023-05-17T00:36:44.452Z,22.92
2023-05-17T00:39:17.214Z,22.92
2023-05-17T00:41:50.187Z,22.91
2023-05-17T00:44:22.860Z,22.91
2023-05-17T00:46:56.229Z,22.90
2023-05-17T00:49:29.134Z,22.90
2023-05-17T00:52:02.432Z,22.89
2023-05-17T00:54:36.076Z,22.88
2023-05-17T00:57:09.130Z,22.88
2023-05-17T00:59:42.077Z,22.87
2023-05-17T01:02:15.188Z,22.87
2023-05-17T01:04:48.374Z,22.86
2023-05-17T01:07:22.205Z,22.86
2023-05-17T01:09:55.249Z,22.85
2023-05-17T01:12:28.237Z,22.84
2023-05-17T01:15:00.976Z,22.83
2023-05-17T01:17:34.142Z,22.83
2023-05-17T01:22:40.327Z,22.81
2023-05-17T01:25:13.307Z,22.81
2023-05-17T01:27:46.208Z,22.79
2023-05-17T01:30:19.244Z,22.79
2023-05-17T01:32:52.084Z,22.78
2023-05-17T01:35:24.896Z,22.77
2023-05-17T01:37:58.427Z,22.77
2023-05-17T01:40:31.200Z,22.76
2023-05-17T01:43:04.229Z,22.75
2023-05-17T01:45:36.982Z,22.74
2023-05-17T01:48:10.295Z,22.74
2023-05-17T01:50:43.325Z,22.73
2023-05-17T01:53:16.460Z,22.72
2023-05-17T01:55:51.312Z,22.71
2023-05-17T01:58:24.202Z,22.70
2023-05-17T02:00:57.181Z,22.69
2023-05-17T02:03:31.286Z,22.68
2023-05-17T02:06:04.274Z,22.67
2023-05-17T02:08:37.605Z,22.67
2023-05-17T02:11:11.230Z,22.66
2023-05-17T02:13:44.477Z,22.65
2023-05-17T02:16:18.279Z,22.64
2023-05-17T02:18:51.527Z,22.63
2023-05-17T02:21:24.227Z,22.62
2023-05-17T02:23:57.319Z,22.62
2023-05-17T02:26:31.322Z,22.61
2023-05-17T02:29:04.273Z,22.60
2023-05-17T02:31:37.336Z,22.60
2023-05-17T02:34:10.282Z,22.59
2023-05-17T02:36:43.126Z,22.58
2023-05-17T02:39:16.520Z,22.57
2023-05-17T02:41:49.477Z,22.56
2023-05-17T02:44:23.154Z,22.56
2023-05-17T02:46:56.516Z,22.55
2023-05-17T02:49:30.327Z,22.54
2023-05-17T02:52:03.006Z,22.53
2023-05-17T02:54:36.625Z,22.52
2023-05-17T02:57:10.050Z,22.51
2023-05-17T02:59:43.597Z,22.51
2023-05-17T03:02:17.439Z,22.50
2023-05-17T03:05:04.310Z,22.49
2023-05-17T03:07:37.097Z,22.48
2023-05-17T03:10:10.139Z,22.48
2023-05-17T03:12:43.173Z,22.47
2023-05-17T03:15:16.394Z,22.46
2023-05-17T03:17:49.557Z,22.45
2023-05-17T03:20:22.412Z,22.45
2023-05-17T03:22:55.546Z,22.44
2023-05-17T03:25:29.443Z,22.43
2023-05-17T03:28:02.246Z,22.43
2023-05-17T03:30:35.357Z,22.42
2023-05-17T03:33:08.413Z,22.41
2023-05-17T03:35:41.494Z,22.40
2023-05-17T03:38:14.377Z,22.40
2023-05-17T03:40:47.637Z,22.39
2023-05-17T03:43:20.444Z,22.38
2023-05-17T03:45:53.489Z,22.37
2023-05-17T03:48:26.556Z,22.37
2023-05-17T03:50:59.348Z,22.36
2023-05-17T03:53:32.153Z,22.36
2023-05-17T03:56:05.225Z,22.35
2023-05-17T03:58:38.139Z,22.35
2023-05-17T04:01:11.448Z,22.34
2023-05-17T04:03:44.491Z,22.34
2023-05-17T04:06:17.270Z,22.33
2023-05-17T04:08:50.270Z,22.33
2023-05-17T04:11:23.646Z,22.32
2023-05-17T04:13:56.268Z,22.32
2023-05-17T04:16:29.165Z,22.31
2023-05-17T04:19:02.298Z,22.31
2023-05-17T04:21:35.169Z,22.30
2023-05-17T04:24:08.248Z,22.30
2023-05-17T04:26:41.473Z,22.29
2023-05-17T04:29:14.334Z,22.29
2023-05-17T04:31:47.298Z,22.28
2023-05-17T04:34:20.199Z,22.28
2023-05-17T04:36:53.269Z,22.27
2023-05-17T04:39:26.551Z,22.27
2023-05-17T04:41:59.638Z,22.27
2023-05-17T04:44:32.192Z,22.27
2023-05-17T04:47:05.324Z,22.27
2023-05-17T04:49:38.198Z,22.27
2023-05-17T04:52:11.406Z,22.26
2023-05-17T04:54:44.323Z,22.26
2023-05-17T04:57:17.422Z,22.26
2023-05-17T04:59:50.616Z,22.26
2023-05-17T05:02:23.512Z,22.26
2023-05-17T05:04:56.548Z,22.27
2023-05-17T05:07:29.558Z,22.27
2023-05-17T05:10:02.331Z,22.28
2023-05-17T05:12:35.307Z,22.29
2023-05-17T05:15:08.560Z,22.29
2023-05-17T05:17:41.606Z,22.30
2023-05-17T05:20:14.306Z,22.30
2023-05-17T05:22:47.267Z,22.30
2023-05-17T05:25:20.629Z,22.30
2023-05-17T05:27:54.615Z,22.30
2023-05-17T05:30:27.676Z,22.30
2023-05-17T05:33:00.777Z,22.30
2023-05-17T05:35:33.465Z,22.30
2023-05-17T05:38:06.378Z,22.30
2023-05-17T05:40:39.575Z,22.30
2023-05-17T05:43:12.743Z,22.30
2023-05-17T05:45:45.587Z,22.30
2023-05-17T05:48:18.816Z,22.30
2023-05-17T05:50:51.788Z,22.30
2023-05-17T05:53:25.649Z,22.30
2023-05-17T05:55:58.429Z,22.30
2023-05-17T05:58:31.790Z,22.30
2023-05-17T06:01:06.344Z,22.30
2023-05-17T06:03:37.605Z,22.30
2023-05-17T06:06:10.785Z,22.30
2023-05-17T06:08:43.619Z,22.29
2023-05-17T06:11:16.640Z,22.29
2023-05-17T06:13:49.827Z,22.29
2023-05-17T06:16:22.689Z,22.29
2023-05-17T06:18:55.723Z,22.29
2023-05-17T06:21:28.659Z,22.29
2023-05-17T06:24:03.502Z,22.29
2023-05-17T06:26:34.730Z,22.29
2023-05-17T06:29:07.865Z,22.29
2023-05-17T06:31:40.628Z,22.29
2023-05-17T06:34:13.839Z,22.29
2023-05-17T06:36:46.356Z,22.29
2023-05-17T06:39:19.492Z,22.29
2023-05-17T06:41:52.674Z,22.28
2023-05-17T06:44:25.824Z,22.28
2023-05-17T06:46:58.515Z,22.28
2023-05-17T06:49:31.673Z,22.28
2023-05-17T06:52:04.728Z,22.28
2023-05-17T06:54:37.652Z,22.28
2023-05-17T06:57:10.736Z,22.28
2023-05-17T06:59:43.579Z,22.28
2023-05-17T07:02:16.540Z,22.28
2023-05-17T07:04:49.785Z,22.28
2023-05-17T07:07:22.454Z,22.28
2023-05-17T07:09:55.865Z,22.29
2023-05-17T07:12:29.846Z,22.28
2023-05-17T07:15:04.967Z,22.28
2023-05-17T07:17:37.797Z,22.29
2023-05-17T07:20:10.967Z,22.29
2023-05-17T07:22:44.675Z,22.29
2023-05-17T07:25:17.776Z,22.29
2023-05-17T07:27:50.607Z,22.29
2023-05-17T07:30:23.889Z,22.29
2023-05-17T07:32:56.827Z,22.29
2023-05-17T07:35:29.760Z,22.30
2023-05-17T07:38:02.728Z,22.30
2023-05-17T07:40:35.642Z,22.30
2023-05-17T07:43:08.710Z,22.30
2023-05-17T07:45:41.612Z,22.30
2023-05-17T07:48:14.698Z,22.30
2023-05-17T07:50:47.734Z,22.30
2023-05-17T07:53:20.807Z,22.30
2023-05-17T07:55:53.741Z,22.30
2023-05-17T07:58:26.645Z,22.31
2023-05-17T08:00:59.631Z,22.31
2023-05-17T08:03:32.794Z,22.31
2023-05-17T08:06:06.113Z,22.31
2023-05-17T08:08:39.575Z,22.31
2023-05-17T08:11:12.870Z,22.31
2023-05-17T08:13:45.769Z,22.31
2023-05-17T08:16:19.115Z,22.31
2023-05-17T08:18:52.009Z,22.31
2023-05-17T08:21:24.805Z,22.31
2023-05-17T08:23:57.667Z,22.32
2023-05-17T08:26:30.849Z,22.32
2023-05-17T08:29:03.803Z,22.31
2023-05-17T08:31:37.017Z,22.32
2023-05-17T08:34:09.875Z,22.32
2023-05-17T08:36:42.515Z,22.32
2023-05-17T08:39:15.655Z,22.32
2023-05-17T08:41:48.788Z,22.32
2023-05-17T08:44:21.853Z,22.32
2023-05-17T08:46:55.189Z,22.33
2023-05-17T08:49:27.580Z,22.33
2023-05-17T08:52:00.817Z,22.33
2023-05-17T08:54:33.890Z,22.33
2023-05-17T08:57:20.598Z,22.33
2023-05-17T08:59:53.564Z,22.34
2023-05-17T09:02:26.939Z,22.34
2023-05-17T09:04:59.902Z,22.34
2023-05-17T09:07:32.880Z,22.34
2023-05-17T09:10:05.898Z,22.34
2023-05-17T09:12:38.668Z,22.34
2023-05-17T09:15:17.831Z,22.35
2023-05-17T09:17:50.780Z,22.35
2023-05-17T09:20:23.726Z,22.35
2023-05-17T09:22:56.888Z,22.35
2023-05-17T09:25:29.896Z,22.35
2023-05-17T09:28:02.806Z,22.35
2023-05-17T09:30:35.849Z,22.35
2023-05-17T09:33:08.736Z,22.35
2023-05-17T09:35:42.040Z,22.35
2023-05-17T09:38:15.701Z,22.35
2023-05-17T09:40:48.927Z,22.35
2023-05-17T09:43:22.016Z,22.36
2023-05-17T09:45:54.910Z,22.36
2023-05-17T09:48:28.112Z,22.36
2023-05-17T09:51:00.905Z,22.36
2023-05-17T09:53:33.797Z,22.36
2023-05-17T09:56:07.079Z,22.36
2023-05-17T09:58:40.017Z,22.37
2023-05-17T10:01:12.990Z,22.37
2023-05-17T10:03:46.075Z,22.37
2023-05-17T10:06:32.581Z,22.37
2023-05-17T10:08:51.623Z,22.37
2023-05-17T10:11:25.006Z,22.37
2023-05-17T10:13:57.909Z,22.37
2023-05-17T10:16:30.966Z,22.38
2023-05-17T10:19:04.083Z,22.38
2023-05-17T10:21:37.036Z,22.38
2023-05-17T10:24:10.030Z,22.38
2023-05-17T10:26:43.193Z,22.38
2023-05-17T10:29:17.004Z,22.39
2023-05-17T10:31:49.959Z,22.39
2023-05-17T10:34:22.769Z,22.40
2023-05-17T10:36:55.901Z,22.40
2023-05-17T10:39:28.719Z,22.40
2023-05-17T10:42:13.661Z,22.41
2023-05-17T10:44:35.386Z,22.41
2023-05-17T10:47:09.120Z,22.41
2023-05-17T10:49:41.859Z,22.42
2023-05-17T10:52:14.809Z,22.42
2023-05-17T10:54:48.070Z,22.42
2023-05-17T10:57:21.025Z,22.42
2023-05-17T10:59:53.717Z,22.42
2023-05-17T11:02:27.085Z,22.42
2023-05-17T11:05:00.254Z,22.43
2023-05-17T11:07:33.098Z,22.43
2023-05-17T11:10:06.014Z,22.44
2023-05-17T11:12:40.586Z,22.44
2023-05-17T11:15:12.274Z,22.44
2023-05-17T11:17:46.040Z,22.45
2023-05-17T11:20:19.301Z,22.45
2023-05-17T11:22:51.923Z,22.45
2023-05-17T11:25:25.206Z,22.45
2023-05-17T11:27:58.775Z,22.46
2023-05-17T11:30:32.099Z,22.46
2023-05-17T11:33:07.056Z,22.46
2023-05-17T11:35:37.794Z,22.46
2023-05-17T11:38:11.088Z,22.47
2023-05-17T11:40:44.111Z,22.47
2023-05-17T11:43:17.310Z,22.47
2023-05-17T11:45:53.140Z,22.48
2023-05-17T11:48:24.061Z,22.48
2023-05-17T11:53:46.807Z,22.49
2023-05-17T11:56:24.074Z,22.50
2023-05-17T11:58:53.099Z,22.50
2023-05-17T12:01:26.146Z,22.51
2023-05-17T12:03:59.089Z,22.51
2023-05-17T12:06:32.001Z,22.51
2023-05-17T12:09:05.513Z,22.52
2023-05-17T12:11:38.942Z,22.52
2023-05-17T12:14:12.018Z,22.52
2023-05-17T12:16:45.076Z,22.53
2023-05-17T12:19:18.122Z,22.53
2023-05-17T12:21:51.160Z,22.53
2023-05-17T12:24:24.236Z,22.54
2023-05-17T12:27:02.784Z,22.54
2023-05-17T12:29:35.979Z,22.54
2023-05-17T12:32:08.999Z,22.55
2023-05-17T12:34:41.983Z,22.56
2023-05-17T12:37:15.028Z,22.56
2023-05-17T12:39:48.106Z,22.57
2023-05-17T12:42:21.070Z,22.57
2023-05-17T12:44:54.047Z,22.57
2023-05-17T12:47:26.970Z,22.58
2023-05-17T12:49:59.875Z,22.58
2023-05-17T12:52:33.076Z,22.58
2023-05-17T12:55:05.996Z,22.59
2023-05-17T12:57:39.002Z,22.59
2023-05-17T13:00:12.124Z,22.60
2023-05-17T13:02:45.245Z,22.61
2023-05-17T13:05:18.048Z,22.62
2023-05-17T13:07:50.929Z,22.62
2023-05-17T13:10:24.137Z,22.63
2023-05-17T13:12:57.149Z,22.64
2023-05-17T13:15:30.362Z,22.64
2023-05-17T13:18:03.016Z,22.65
2023-05-17T13:20:36.012Z,22.65
2023-05-17T13:23:09.189Z,22.66
2023-05-17T13:25:42.355Z,22.67
2023-05-17T13:28:15.071Z,22.68
2023-05-17T13:30:48.258Z,22.69
2023-05-17T13:33:21.540Z,22.70
2023-05-17T13:35:55.388Z,22.71
2023-05-17T13:38:28.044Z,22.72
2023-05-17T13:41:01.318Z,22.73
2023-05-17T13:43:34.081Z,22.75
2023-05-17T13:46:06.965Z,22.76
2023-05-17T13:48:42.626Z,22.78
2023-05-17T13:51:17.227Z,22.79
2023-05-17T13:53:50.346Z,22.81
2023-05-17T13:56:23.113Z,22.83
2023-05-17T13:58:56.283Z,22.85
2023-05-17T14:01:29.289Z,22.87
2023-05-17T14:04:02.337Z,22.89
2023-05-17T14:06:35.162Z,22.91
2023-05-17T14:09:08.039Z,22.93
2023-05-17T14:11:41.140Z,22.94
2023-05-17T14:14:14.528Z,22.95
2023-05-17T14:16:48.289Z,22.96
2023-05-17T14:19:21.419Z,22.96
2023-05-17T14:21:54.196Z,22.96
2023-05-17T14:24:27.166Z,22.97
2023-05-17T14:27:00.343Z,22.98
2023-05-17T14:29:33.497Z,22.99
2023-05-17T14:32:07.070Z,23.01
2023-05-17T14:34:40.190Z,23.03
2023-05-17T14:37:17.126Z,23.05
2023-05-17T14:40:05.445Z,23.08
2023-05-17T14:42:23.266Z,23.10
2023-05-17T14:44:56.168Z,23.12
2023-05-17T14:47:29.376Z,23.14
2023-05-17T14:50:02.323Z,23.16
2023-05-17T14:52:35.476Z,23.17
2023-05-17T14:55:08.342Z,23.17
2023-05-17T14:57:41.412Z,23.17
2023-05-17T15:00:14.351Z,23.18
2023-05-17T15:02:47.458Z,23.18
2023-05-17T15:05:20.417Z,23.18
2023-05-17T15:07:57.282Z,23.17
2023-05-17T15:10:30.369Z,23.17
2023-05-17T15:13:03.416Z,23.17
2023-05-17T15:15:36.173Z,23.16
2023-05-17T15:18:09.170Z,23.16
2023-05-17T15:20:42.251Z,23.16
2023-05-17T15:23:15.220Z,23.16
2023-05-17T15:25:48.454Z,23.17
2023-05-17T15:28:21.467Z,23.17
2023-05-17T15:30:54.276Z,23.18
2023-05-17T15:33:27.278Z,23.18
2023-05-17T15:36:00.264Z,23.18
2023-05-17T15:38:33.229Z,23.19
2023-05-17T15:41:06.133Z,23.19
2023-05-17T15:43:39.485Z,23.19
2023-05-17T15:46:12.327Z,23.20
2023-05-17T15:48:45.389Z,23.20
2023-05-17T15:51:18.278Z,23.20
2023-05-17T15:53:51.297Z,23.21
2023-05-17T15:56:24.187Z,23.21
2023-05-17T15:58:57.450Z,23.22
2023-05-17T16:01:30.254Z,23.23
2023-05-17T16:04:03.558Z,23.23
2023-05-17T16:06:36.408Z,23.24
2023-05-17T16:09:09.204Z,23.25
2023-05-17T16:11:42.322Z,23.26
2023-05-17T16:14:15.454Z,23.27
2023-05-17T16:16:48.314Z,23.28
2023-05-17T16:19:21.597Z,23.28
2023-05-17T16:21:54.402Z,23.29
2023-05-17T16:24:41.373Z,23.30
2023-05-17T16:27:14.183Z,23.31
2023-05-17T16:29:47.381Z,23.32
2023-05-17T16:32:20.382Z,23.32
2023-05-17T16:34:53.354Z,23.33
2023-05-17T16:37:26.380Z,23.34
2023-05-17T16:39:59.413Z,23.35
2023-05-17T16:42:32.339Z,23.35
2023-05-17T16:45:07.733Z,23.36
2023-05-17T16:47:38.421Z,23.37
2023-05-17T16:50:14.475Z,23.38
2023-05-17T16:52:47.363Z,23.38
2023-05-17T16:55:20.346Z,23.40
2023-05-17T16:57:53.547Z,23.41
2023-05-17T17:00:26.490Z,23.41
2023-05-17T17:02:59.422Z,23.42
2023-05-17T17:05:32.402Z,23.43
2023-05-17T17:08:05.284Z,23.44
2023-05-17T17:10:38.460Z,23.44
2023-05-17T17:13:11.256Z,23.45
2023-05-17T17:15:44.689Z,23.46
2023-05-17T17:18:17.346Z,23.47
2023-05-17T17:20:50.429Z,23.48
2023-05-17T17:23:23.526Z,23.48
2023-05-17T17:25:56.567Z,23.49
2023-05-17T17:28:29.570Z,23.50
2023-05-17T17:31:02.556Z,23.50
2023-05-17T17:33:35.694Z,23.50
2023-05-17T17:36:08.404Z,23.50
2023-05-17T17:38:41.405Z,23.50
2023-05-17T17:41:14.349Z,23.49
2023-05-17T17:43:47.627Z,23.48
2023-05-17T17:46:23.660Z,23.48
2023-05-17T17:48:56.987Z,23.46
2023-05-17T17:51:29.586Z,23.45
2023-05-17T17:54:02.518Z,23.44
2023-05-17T17:56:35.458Z,23.43
2023-05-17T17:59:08.484Z,23.42
2023-05-17T18:01:41.600Z,23.41
2023-05-17T18:04:14.409Z,23.40
2023-05-17T18:06:47.553Z,23.39
2023-05-17T18:09:20.536Z,23.38
2023-05-17T18:11:53.580Z,23.37
2023-05-17T18:14:26.559Z,23.36
2023-05-17T18:16:59.564Z,23.35
2023-05-17T18:19:32.536Z,23.34
2023-05-17T18:22:05.436Z,23.34
2023-05-17T18:24:38.604Z,23.33
2023-05-17T18:27:11.472Z,23.32
2023-05-17T18:29:45.522Z,23.31
2023-05-17T18:32:18.658Z,23.30
2023-05-17T18:34:51.636Z,23.29
2023-05-17T18:37:24.727Z,23.28
2023-05-17T18:39:57.643Z,23.27
2023-05-17T18:42:30.573Z,23.26
2023-05-17T18:45:03.386Z,23.25
2023-05-17T18:47:36.573Z,23.25
2023-05-17T18:50:23.415Z,23.24
2023-05-17T18:52:57.338Z,23.23
2023-05-17T18:55:29.774Z,23.22
2023-05-17T18:58:02.550Z,23.21
2023-05-17T19:00:35.586Z,23.20
2023-05-17T19:03:08.568Z,23.19
2023-05-17T19:05:41.559Z,23.18
2023-05-17T19:08:14.441Z,23.17
2023-05-17T19:10:47.533Z,23.16
2023-05-17T19:13:20.466Z,23.15
2023-05-17T19:15:53.477Z,23.14
2023-05-17T19:18:26.633Z,23.13
2023-05-17T19:20:59.590Z,23.12
2023-05-17T19:23:32.452Z,23.11
2023-05-17T19:26:05.472Z,23.10
2023-05-17T19:28:38.768Z,23.09
2023-05-17T19:31:11.456Z,23.08
2023-05-17T19:33:44.566Z,23.08
2023-05-17T19:36:31.603Z,23.07
2023-05-17T19:39:04.695Z,23.05
2023-05-17T19:41:37.791Z,23.05
2023-05-17T19:44:12.513Z,23.04
2023-05-17T19:46:45.752Z,23.03
2023-05-17T19:49:18.521Z,23.02
2023-05-17T19:51:51.529Z,23.01
2023-05-17T19:54:24.477Z,23.00
2023-05-17T19:56:57.641Z,22.99
2023-05-17T19:59:30.650Z,22.99
2023-05-17T20:02:03.581Z,22.98
2023-05-17T20:04:36.630Z,22.96
2023-05-17T20:07:09.774Z,22.96
2023-05-17T20:09:42.747Z,22.95
2023-05-17T20:12:15.634Z,22.94
2023-05-17T20:14:48.639Z,22.93
2023-05-17T20:17:21.540Z,22.92
2023-05-17T20:19:54.677Z,22.92
2023-05-17T20:22:27.548Z,22.92
2023-05-17T20:25:00.716Z,22.92
2023-05-17T20:27:33.684Z,22.93
2023-05-17T20:30:06.555Z,22.93
2023-05-17T20:32:39.733Z,22.93
2023-05-17T20:35:12.760Z,22.94
2023-05-17T20:37:45.654Z,22.94
2023-05-17T20:40:18.598Z,22.94
2023-05-17T20:42:52.578Z,22.95
2023-05-17T20:45:25.564Z,22.95
2023-05-17T20:48:01.835Z,22.96
2023-05-17T20:50:34.696Z,22.96
2023-05-17T20:53:07.578Z,22.97
2023-05-17T20:55:54.687Z,22.98
2023-05-17T20:58:27.896Z,22.98
2023-05-17T21:01:01.041Z,22.99
2023-05-17T21:03:34.107Z,22.99
2023-05-17T21:06:06.714Z,23.00
2023-05-17T21:08:39.691Z,23.00
2023-05-17T21:11:12.780Z,23.01
2023-05-17T21:13:45.937Z,23.01
2023-05-17T21:16:18.879Z,23.02
2023-05-17T21:18:52.018Z,23.02
2023-05-17T21:21:24.887Z,23.03
2023-05-17T21:23:57.754Z,23.03
2023-05-17T21:26:30.992Z,23.04
2023-05-17T21:29:03.865Z,23.04
2023-05-17T21:31:36.951Z,23.04
2023-05-17T21:34:09.859Z,23.05
2023-05-17T21:36:48.892Z,23.05
2023-05-17T21:39:21.906Z,23.05
2023-05-17T21:42:08.952Z,23.05
2023-05-17T21:44:41.751Z,23.05
2023-05-17T21:47:15.159Z,23.04
2023-05-17T21:49:49.092Z,23.04
2023-05-17T21:52:22.948Z,23.04
2023-05-17T21:54:55.969Z,23.04
2023-05-17T21:57:28.666Z,23.03
2023-05-17T22:00:02.012Z,23.03
2023-05-17T22:02:35.127Z,23.02
2023-05-17T22:05:07.784Z,23.01
2023-05-17T22:07:41.082Z,23.00
2023-05-17T22:10:13.787Z,22.99
2023-05-17T22:12:47.162Z,22.98
2023-05-17T22:15:21.039Z,22.97
2023-05-17T22:18:08.101Z,22.95
2023-05-17T22:20:41.023Z,22.94
2023-05-17T22:23:14.168Z,22.93
2023-05-17T22:25:48.140Z,22.92
2023-05-17T22:28:21.037Z,22.91
2023-05-17T22:30:54.098Z,22.90
2023-05-17T22:33:26.968Z,22.89
2023-05-17T22:36:00.009Z,22.88
2023-05-17T22:38:33.011Z,22.86
2023-05-17T22:41:06.056Z,22.85
2023-05-17T22:43:39.350Z,22.84
2023-05-17T22:46:13.070Z,22.83
2023-05-17T22:48:46.202Z,22.82
2023-05-17T22:51:20.144Z,22.81
2023-05-17T22:53:53.065Z,22.80
2023-05-17T22:56:25.887Z,22.79
2023-05-17T22:58:59.336Z,22.78
2023-05-17T23:01:33.138Z,22.77
2023-05-17T23:04:06.135Z,22.76
2023-05-17T23:06:39.120Z,22.75
2023-05-17T23:09:11.891Z,22.73
2023-05-17T23:11:44.855Z,22.72
2023-05-17T23:14:18.124Z,22.71
2023-05-17T23:16:51.098Z,22.70
2023-05-17T23:19:24.299Z,22.69
2023-05-17T23:21:58.148Z,22.68
2023-05-17T23:24:31.127Z,22.67
2023-05-17T23:27:04.152Z,22.66
2023-05-17T23:29:36.827Z,22.65
2023-05-17T23:32:10.175Z,22.64
2023-05-17T23:34:43.157Z,22.63
2023-05-17T23:37:16.146Z,22.62
2023-05-17T23:39:49.059Z,22.61
2023-05-17T23:42:22.116Z,22.60
2023-05-17T23:44:55.349Z,22.59
2023-05-17T23:47:29.131Z,22.58
2023-05-17T23:50:02.325Z,22.58
2023-05-17T23:52:35.827Z,22.57
2023-05-17T23:55:09.012Z,22.56
2023-05-17T23:57:42.151Z,22.55
